Loris, SC (29569)

14:57 EDT le 02 septembre 2015 (GMT -0400)
HWY 9 BUS. WEST. | | Change Station
CLOSE
Current Station
Stations météorologiques personnelles
Location: Loris, SC
Altitude: 99 ft
Stations météo à proximité

Alt. 99 ft 34.07 °N, 78.91 °W | Updated 3 seconds ago

Partiellement nuageux
Partiellement nuageux
91.5 ° F
Paraît 101 ° F
N
0.0
Vent Variable Vent de Est
Gusts 0.0 mph

Aujourd'hui
Haut(e) -- | Bas -- ° F
--% Risque de précip.
Hier
Haut(e) -- | Bas -- ° F
Precip. -- pouce
6:49 AM 7:40 PM
Lune gibbeuse décroissante, 78% visible
Pression 30.02 pouce
Visibilité 7.0 Miles terrestres
Nuages Nuages épars 5500 ft
indice de chaleur 101 ° F
Point de rosée 74 ° F
Humidité 56%
Précipitations 0.00 pouce
Profondeur de la couche neigeuse Non disponible.
UV 8 sur 12
Pollen 8.10 sur 12
Qualité de l'air Non disponible.
Flu Activity Non disponible.
METAR KHYW 021855Z AUTO 00000KT 7SM SCT055 33/21 A3002 RMK AO2
Pression 30.02 pouce
Visibilité 7.0 Miles terrestres
Nuages Nuages épars 5500 ft
indice de chaleur 101 ° F
Point de rosée 74 ° F
Humidité 56%
Précipitations 0.00 pouce
Profondeur de la couche neigeuse Non disponible.
UV 8 sur 12
Pollen 8.10 sur 12
Qualité de l'air Non disponible.
Flu Activity Non disponible.
METAR KHYW 021855Z AUTO 00000KT 7SM SCT055 33/21 A3002 RMK AO2

10-Day Weather Forecast

×

Almanac

Astronomie

Sep. 02, 2015 Lever Coucher
Temps réel
Crépuscule civil
Crépuscule nautique
Crépuscule astronomique
Lune
Durée de lumière visible
Longueur du jour
Tomorrow will be .
, % of the Moon is Illuminated

Extrêmes aujourd'hui

State Highs State Lows

Community

WunderPhotos

Upload Photos

1,851,793 Photos téléchargées !

WunderBlogs® & News

Nearby

Qualité de l'air

  Qualité de l'air Indice de la qualité de l'air Polluant
Not available.

Épaisseur de neige

Station Depth Altitude

Activité sismique

Ville Distance Mag. Time & Date
Minimum magnitude displayed is 2.5.

Températures des eaux côtières

Lieu Température

Stations

Stations météo à proximité

Emplacement de la station Température Refroidissement éolien Point de rosée Humidité Vent Precip. Alt. Mise à jour Type